Terminal Aerodrome Forecast
Issued by NWS Jackson, MS

Home | Current Version | Previous Version | Text Only | Print | Product List | Glossary On
Versions: 1 2 3 4 5 6 7 8 9 10 11 12 13 14 15 16 17 18
000
FTUS44 KJAN 280829 AAA
TAFGLH
TAF AMD
KGLH 280829Z 2808/2906 00000KT 2SM BR BKN001
     FM281000 00000KT 1/2SM FG VV001
     FM281400 15004KT P6SM BKN007
     FM281500 15003KT P6SM BKN020
     FM281600 16006KT P6SM SCT040=

USA.gov is the U.S. government's official web portal to all federal, state and local government web resources and services.